Time;durP1;ratioP1;P1;durP2;ratioP2;P2;SDS_P1;SDS_P2;PMS_P1;PMS_P2;Temp;Humidity;BMP_temperature;BMP_pressure;BME280_temperature;BME280_humidity;BME280_pressure;Samples;Min_cycle;Max_cycle;Signal;HPM_P1;HPM_P2
2022/08/01 00:02:18;;;;;;;17.37;15.30;;;20.40;99.90;;;;;;5076317;28;20455;-80
2022/08/01 00:04:45;;;;;;;14.63;13.13;;;20.30;99.90;;;;;;5074309;28;21919;-80
2022/08/01 00:07:12;;;;;;;16.30;14.50;;;20.30;99.90;;;;;;5075942;28;20482;-79
2022/08/01 00:09:39;;;;;;;20.07;16.60;;;20.30;99.90;;;;;;5075027;28;20451;-80
2022/08/01 00:12:08;;;;;;;17.60;15.83;;;20.20;99.90;;;;;;5078757;28;20461;-77
2022/08/01 00:14:35;;;;;;;22.40;16.00;;;20.20;99.90;;;;;;5076449;28;20459;-80
2022/08/01 00:17:02;;;;;;;13.97;12.57;;;20.20;99.90;;;;;;5073824;28;20912;-78
2022/08/01 00:19:29;;;;;;;15.17;13.57;;;20.20;99.90;;;;;;5072643;28;20459;-77
2022/08/01 00:21:56;;;;;;;17.93;16.10;;;20.30;99.90;;;;;;5071672;28;20451;-79
2022/08/01 00:24:23;;;;;;;17.50;15.80;;;20.10;99.90;;;;;;5071730;28;20459;-78
2022/08/01 00:26:50;;;;;;;17.30;15.63;;;20.20;99.90;;;;;;5073366;28;20505;-81
2022/08/01 00:29:18;;;;;;;19.97;17.87;;;20.20;99.90;;;;;;5073574;28;20524;-79
2022/08/01 00:31:45;;;;;;;20.77;17.67;;;20.10;99.90;;;;;;5073585;28;20474;-78
2022/08/01 00:34:12;;;;;;;21.10;19.10;;;20.20;99.90;;;;;;5072642;28;20455;-80
2022/08/01 00:36:39;;;;;;;25.90;23.10;;;20.20;99.90;;;;;;5073885;28;20458;-79
2022/08/01 00:39:06;;;;;;;19.37;17.37;;;20.20;99.90;;;;;;5122113;22;20506;-85
2022/08/01 00:41:33;;;;;;;22.10;19.90;;;20.20;99.90;;;;;;5097017;28;20486;-84
2022/08/01 00:44:04;;;;;;;21.10;19.07;;;20.20;99.90;;;;;;5097918;28;20446;-83
2022/08/01 00:46:32;;;;;;;25.20;22.60;;;20.30;99.90;;;;;;5097405;28;20526;-82
2022/08/01 00:49:00;;;;;;;20.37;18.37;;;20.20;99.90;;;;;;5093418;28;20463;-84
2022/08/01 00:51:27;;;;;;;23.33;20.83;;;20.20;99.90;;;;;;5076869;28;20450;-83
2022/08/01 00:53:54;;;;;;;25.50;22.97;;;20.20;99.90;;;;;;5076911;28;20518;-83
2022/08/01 00:56:24;;;;;;;21.10;19.00;;;20.10;99.90;;;;;;5078445;28;20469;-84
2022/08/01 00:58:51;;;;;;;22.47;20.10;;;20.10;99.90;;;;;;5076487;28;20605;-83
2022/08/01 01:01:20;;;;;;;23.67;21.37;;;20.10;99.90;;;;;;5075001;28;20457;-82
2022/08/01 01:03:48;;;;;;;21.17;18.80;;;20.00;99.90;;;;;;5079546;28;20943;-83
2022/08/01 01:06:35;;;;;;;34.40;26.93;;;20.10;99.90;;;;;;5079333;28;20453;-82
2022/08/01 01:09:17;;;;;;;21.73;19.47;;;20.10;99.90;;;;;;5079225;28;20570;-82
2022/08/01 01:11:50;;;;;;;21.63;18.90;;;20.10;99.90;;;;;;5079200;28;20538;-81
2022/08/01 01:14:27;;;;;;;21.53;19.33;;;20.10;99.90;;;;;;5079154;28;20458;-82
2022/08/01 01:16:55;;;;;;;21.97;19.63;;;20.20;99.90;;;;;;5076726;28;20486;-83
2022/08/01 01:19:29;;;;;;;23.23;20.80;;;20.20;99.90;;;;;;5080886;28;20964;-82
2022/08/01 01:22:16;;;;;;;27.80;21.97;;;20.20;99.90;;;;;;5081152;28;20450;-82
2022/08/01 01:24:55;;;;;;;26.27;23.47;;;20.20;99.90;;;;;;5078760;28;20449;-82
2022/08/01 01:27:30;;;;;;;26.63;23.50;;;20.10;99.90;;;;;;5080918;28;20538;-83
2022/08/01 01:30:01;;;;;;;35.87;30.30;;;20.00;99.90;;;;;;5076188;28;20509;-83
2022/08/01 01:32:34;;;;;;;26.83;24.13;;;19.90;99.90;;;;;;5080671;28;20459;-83
2022/08/01 01:35:05;;;;;;;28.17;23.20;;;20.00;99.90;;;;;;5082847;28;20431;-83
2022/08/01 01:37:33;;;;;;;28.63;25.53;;;20.10;99.90;;;;;;5084725;28;20922;-83
2022/08/01 01:40:02;;;;;;;26.90;22.00;;;20.10;99.90;;;;;;5081749;28;20528;-83
2022/08/01 01:42:30;;;;;;;22.80;20.50;;;20.10;99.90;;;;;;5083138;28;20504;-83
2022/08/01 01:45:00;;;;;;;27.33;24.50;;;20.10;99.90;;;;;;5082112;28;20466;-82
2022/08/01 01:47:28;;;;;;;26.80;22.53;;;20.00;99.90;;;;;;5080996;28;20457;-85
2022/08/01 01:49:58;;;;;;;21.13;18.73;;;20.10;99.90;;;;;;5079929;28;20474;-82
2022/08/01 01:52:27;;;;;;;22.20;18.80;;;20.20;99.90;;;;;;5081491;28;20474;-84
2022/08/01 01:54:55;;;;;;;20.70;18.60;;;20.10;99.90;;;;;;5080230;28;20578;-82
2022/08/01 01:57:24;;;;;;;20.10;18.03;;;20.00;99.90;;;;;;5080809;28;20554;-83
2022/08/01 01:59:53;;;;;;;19.63;17.63;;;20.10;99.90;;;;;;5081583;28;20915;-83
2022/08/01 02:02:24;;;;;;;21.37;19.10;;;20.10;99.90;;;;;;5081170;28;20827;-83
2022/08/01 02:04:52;;;;;;;22.97;18.43;;;20.10;99.90;;;;;;5074813;28;20510;-83
2022/08/01 02:07:23;;;;;;;26.30;21.77;;;20.10;99.90;;;;;;5080399;28;20457;-84
2022/08/01 02:09:50;;;;;;;21.90;19.60;;;20.10;99.90;;;;;;5079695;28;20559;-84
2022/08/01 02:12:19;;;;;;;32.80;24.50;;;20.00;99.90;;;;;;5079104;28;20902;-84
2022/08/01 02:14:47;;;;;;;30.50;23.50;;;20.00;99.90;;;;;;5079104;28;20878;-84
2022/08/01 02:17:18;;;;;;;20.70;18.60;;;20.00;99.90;;;;;;5078363;28;20941;-83
2022/08/01 02:19:46;;;;;;;22.77;20.47;;;19.90;99.90;;;;;;5080025;28;21010;-82
2022/08/01 02:22:20;;;;;;;26.37;22.97;;;19.90;99.90;;;;;;5077286;28;20450;-82
2022/08/01 02:24:51;;;;;;;21.00;18.80;;;19.90;99.90;;;;;;5077105;28;20885;-83
2022/08/01 02:27:25;;;;;;;21.93;19.47;;;19.90;99.90;;;;;;5077259;28;21010;-82
2022/08/01 02:29:59;;;;;;;21.47;19.27;;;19.90;99.90;;;;;;5077636;28;20539;-84
2022/08/01 02:32:31;;;;;;;18.07;16.37;;;20.00;99.90;;;;;;5076934;28;20442;-82
2022/08/01 02:35:02;;;;;;;21.27;19.10;;;20.00;99.90;;;;;;5076229;28;20449;-82
2022/08/01 02:37:34;;;;;;;28.40;20.00;;;20.00;99.90;;;;;;5077745;28;20559;-83
2022/08/01 02:40:01;;;;;;;22.73;19.07;;;20.00;99.90;;;;;;5077067;28;20506;-83
2022/08/01 02:42:30;;;;;;;21.90;19.60;;;20.00;99.90;;;;;;5077064;28;21019;-83
2022/08/01 02:44:58;;;;;;;27.27;22.47;;;20.00;99.90;;;;;;5075914;28;20447;-82
2022/08/01 02:47:28;;;;;;;21.57;19.33;;;20.00;99.90;;;;;;5076676;28;20455;-83
2022/08/01 02:49:56;;;;;;;25.93;22.97;;;20.00;99.90;;;;;;5077656;28;20971;-82
2022/08/01 02:52:26;;;;;;;25.00;21.50;;;20.00;99.90;;;;;;5077571;28;20518;-82
2022/08/01 02:54:55;;;;;;;29.07;23.50;;;19.90;99.90;;;;;;5076331;28;20538;-83
2022/08/01 02:57:24;;;;;;;23.50;21.00;;;19.90;99.90;;;;;;5077425;28;20880;-83
2022/08/01 02:59:53;;;;;;;26.60;22.73;;;20.00;99.90;;;;;;5077449;28;20477;-83
2022/08/01 03:02:22;;;;;;;38.97;28.77;;;19.90;99.90;;;;;;5077646;28;20912;-83
2022/08/01 03:04:51;;;;;;;32.87;26.73;;;19.90;99.90;;;;;;5076536;28;20810;-81
2022/08/01 03:07:19;;;;;;;30.73;23.47;;;19.80;99.90;;;;;;5077800;28;21019;-83
2022/08/01 03:09:49;;;;;;;26.57;23.20;;;19.90;99.90;;;;;;5078532;28;20474;-82
2022/08/01 03:12:19;;;;;;;32.57;25.03;;;19.90;99.90;;;;;;5078766;28;20531;-82
2022/08/01 03:14:48;;;;;;;37.07;26.30;;;19.90;99.90;;;;;;5077693;28;20458;-82
2022/08/01 03:17:17;;;;;;;28.70;22.97;;;19.90;99.90;;;;;;5076995;28;20479;-83
2022/08/01 03:19:47;;;;;;;25.23;21.73;;;19.90;99.90;;;;;;5064225;28;20566;-83
2022/08/01 03:22:15;;;;;;;28.53;23.70;;;19.90;99.90;;;;;;5078515;28;20453;-84
2022/08/01 03:24:45;;;;;;;27.30;21.70;;;20.00;99.90;;;;;;5078193;28;20455;-84
2022/08/01 03:27:15;;;;;;;22.33;19.93;;;20.00;99.90;;;;;;5077597;28;20557;-84
2022/08/01 03:29:44;;;;;;;30.17;21.33;;;20.00;99.90;;;;;;5077618;28;20566;-84
2022/08/01 03:32:12;;;;;;;24.47;19.17;;;20.00;99.90;;;;;;5078623;28;20978;-84
2022/08/01 03:34:39;;;;;;;25.63;20.47;;;20.00;99.90;;;;;;5058648;28;20531;-83
2022/08/01 03:37:11;;;;;;;23.13;20.70;;;20.10;99.90;;;;;;5076302;28;20545;-84
2022/08/01 03:39:44;;;;;;;20.00;17.97;;;20.10;99.90;;;;;;5076830;28;20573;-84
2022/08/01 03:42:16;;;;;;;26.63;20.47;;;20.10;99.90;;;;;;5080626;28;20882;-84
2022/08/01 03:44:51;;;;;;;31.20;24.00;;;20.20;99.90;;;;;;5079828;28;20533;-84
2022/08/01 03:47:18;;;;;;;25.57;20.07;;;20.20;99.90;;;;;;5081679;28;20525;-83
2022/08/01 03:49:47;;;;;;;26.13;20.07;;;20.20;99.90;;;;;;5081108;28;20998;-84
2022/08/01 03:52:14;;;;;;;22.87;19.50;;;20.20;99.90;;;;;;5081491;28;20493;-84
2022/08/01 03:54:46;;;;;;;24.43;21.00;;;20.20;99.90;;;;;;5081082;28;20541;-84
2022/08/01 03:57:15;;;;;;;24.77;20.30;;;20.10;99.90;;;;;;5081153;28;20448;-84
2022/08/01 03:59:43;;;;;;;24.03;21.37;;;20.00;99.90;;;;;;5082076;28;20482;-85
2022/08/01 04:02:10;;;;;;;21.53;19.37;;;20.10;99.90;;;;;;5086155;28;20490;-84
2022/08/01 04:04:37;;;;;;;23.60;19.30;;;20.10;99.90;;;;;;5095406;28;20477;-82
2022/08/01 04:07:06;;;;;;;25.50;20.17;;;20.20;99.90;;;;;;5096018;28;20447;-85
2022/08/01 04:09:33;;;;;;;22.90;18.90;;;20.10;99.90;;;;;;5075121;28;20966;-83
2022/08/01 04:12:01;;;;;;;21.50;19.23;;;20.10;99.90;;;;;;5074240;28;20506;-82
2022/08/01 04:14:29;;;;;;;21.87;17.30;;;20.10;99.90;;;;;;5074471;28;20653;-83
2022/08/01 04:16:56;;;;;;;18.80;16.80;;;20.20;99.90;;;;;;5074470;28;20535;-82
2022/08/01 04:19:23;;;;;;;21.20;18.60;;;20.20;99.90;;;;;;5073483;28;20501;-83
2022/08/01 04:21:50;;;;;;;20.33;17.90;;;20.20;99.90;;;;;;5075275;28;20451;-84
2022/08/01 04:24:20;;;;;;;17.10;15.30;;;20.10;99.90;;;;;;5073846;28;20475;-83
2022/08/01 04:26:48;;;;;;;18.03;16.03;;;20.20;99.90;;;;;;5074422;28;20538;-83
2022/08/01 04:29:18;;;;;;;20.80;18.57;;;20.10;99.90;;;;;;5074040;28;20856;-83
2022/08/01 04:31:49;;;;;;;21.07;16.43;;;20.20;99.90;;;;;;5073506;28;20459;-84
2022/08/01 04:34:21;;;;;;;20.03;17.70;;;20.20;99.90;;;;;;5073587;28;20506;-82
2022/08/01 04:36:51;;;;;;;18.73;16.73;;;20.20;99.90;;;;;;5073372;28;20443;-83
2022/08/01 04:39:19;;;;;;;19.97;17.50;;;20.20;99.90;;;;;;5073547;28;20483;-83
2022/08/01 04:41:47;;;;;;;21.60;16.27;;;20.30;99.90;;;;;;5073570;28;20572;-82
2022/08/01 04:44:16;;;;;;;20.43;16.87;;;20.30;99.90;;;;;;5072898;28;20454;-82
2022/08/01 04:46:44;;;;;;;23.17;16.80;;;20.30;99.90;;;;;;5073827;28;20458;-82
2022/08/01 04:49:16;;;;;;;21.17;15.97;;;20.30;99.90;;;;;;5073846;28;20554;-82
2022/08/01 04:51:51;;;;;;;16.57;14.87;;;20.30;99.90;;;;;;5073021;28;20455;-82
2022/08/01 04:54:19;;;;;;;17.47;15.47;;;20.30;99.90;;;;;;5073659;28;20450;-83
2022/08/01 04:56:46;;;;;;;17.10;15.07;;;20.30;99.90;;;;;;5074030;28;20491;-83
2022/08/01 05:01:57;;;;;;;19.50;16.47;;;20.30;99.90;;;;;;5075582;28;20532;-82
2022/08/01 05:04:25;;;;;;;19.63;14.60;;;20.30;99.90;;;;;;5078458;28;20505;-81
2022/08/01 05:06:52;;;;;;;17.20;14.87;;;20.20;99.90;;;;;;5063084;28;20605;-82
2022/08/01 05:09:20;;;;;;;27.13;20.43;;;20.20;99.90;;;;;;5071573;28;20906;-81
2022/08/01 05:11:47;;;;;;;15.90;14.13;;;20.10;99.90;;;;;;5076770;28;20971;-81
2022/08/01 05:14:14;;;;;;;17.70;13.63;;;20.20;99.90;;;;;;5077867;28;20483;-81
2022/08/01 05:16:41;;;;;;;17.63;14.03;;;20.10;99.90;;;;;;5076267;28;20816;-79
2022/08/01 05:19:08;;;;;;;7.80;5.40;;;20.20;99.90;;;;;;5071817;28;20581;-80
2022/08/01 05:21:37;;;;;;;7.17;5.97;;;20.20;99.90;;;;;;5071966;28;20461;-79
2022/08/01 05:24:04;;;;;;;13.03;9.90;;;20.20;99.90;;;;;;5057612;28;20452;-82
2022/08/01 05:26:32;;;;;;;10.43;9.33;;;20.30;99.90;;;;;;5053209;28;20484;-82
2022/08/01 05:28:59;;;;;;;14.17;10.40;;;20.40;99.90;;;;;;5068522;28;20559;-79
2022/08/01 05:31:26;;;;;;;13.80;12.40;;;20.50;99.90;;;;;;5068935;28;20479;-80
2022/08/01 05:33:53;;;;;;;14.37;10.83;;;20.50;99.90;;;;;;5077402;28;20522;-78
2022/08/01 05:36:20;;;;;;;13.30;10.90;;;20.50;99.90;;;;;;5079258;28;20501;-79
2022/08/01 05:38:48;;;;;;;15.30;10.33;;;20.50;99.90;;;;;;5078513;28;20529;-79
2022/08/01 05:41:15;;;;;;;20.27;15.73;;;20.50;99.90;;;;;;5076857;28;20471;-79
2022/08/01 05:43:42;;;;;;;13.00;11.60;;;20.40;99.90;;;;;;5068728;28;20486;-80
2022/08/01 05:46:09;;;;;;;14.17;12.13;;;20.40;99.90;;;;;;5077736;28;20455;-78
2022/08/01 05:48:36;;;;;;;15.20;12.80;;;20.40;99.90;;;;;;5077936;28;20514;-79
2022/08/01 05:51:03;;;;;;;16.07;12.33;;;20.40;99.90;;;;;;5079053;28;20486;-79
2022/08/01 05:53:30;;;;;;;14.43;11.90;;;20.40;99.90;;;;;;5078549;28;20451;-79
2022/08/01 05:55:58;;;;;;;12.87;11.37;;;20.30;99.90;;;;;;5078665;28;20479;-79
2022/08/01 05:58:25;;;;;;;12.40;10.90;;;20.40;99.90;;;;;;5077452;28;20530;-79
2022/08/01 06:00:51;;;;;;;14.03;12.13;;;20.50;99.90;;;;;;5077755;28;20526;-79
2022/08/01 06:03:19;;;;;;;14.30;12.00;;;20.40;99.90;;;;;;5076367;28;20457;-79
2022/08/01 06:05:45;;;;;;;17.97;11.80;;;20.40;99.90;;;;;;5075075;28;20825;-79
2022/08/01 06:08:12;;;;;;;13.87;12.23;;;20.40;99.90;;;;;;5075348;28;20541;-79
2022/08/01 06:10:39;;;;;;;22.00;14.60;;;20.40;99.90;;;;;;5076485;28;20495;-79
2022/08/01 06:13:07;;;;;;;16.30;13.23;;;20.40;99.90;;;;;;5076033;28;20533;-79
2022/08/01 06:15:34;;;;;;;16.77;13.20;;;20.50;99.90;;;;;;5076376;28;20487;-78
2022/08/01 06:18:01;;;;;;;17.97;15.10;;;20.50;99.90;;;;;;5074770;28;20522;-79
2022/08/01 06:20:28;;;;;;;18.67;13.03;;;20.50;99.90;;;;;;5075435;28;20566;-81
2022/08/01 06:22:55;;;;;;;17.30;12.83;;;20.50;99.90;;;;;;5069353;28;20550;-79
2022/08/01 06:25:22;;;;;;;16.17;13.10;;;20.60;99.90;;;;;;5069583;28;21042;-80
2022/08/01 06:27:49;;;;;;;14.10;11.10;;;20.60;99.90;;;;;;5071126;28;20546;-80
2022/08/01 06:30:17;;;;;;;15.00;12.30;;;20.70;99.90;;;;;;5070684;28;20550;-81
2022/08/01 06:32:44;;;;;;;15.43;11.50;;;20.80;99.90;;;;;;5075886;28;20903;-82
2022/08/01 06:35:11;;;;;;;18.30;13.83;;;20.80;99.90;;;;;;5076177;28;20447;-80
2022/08/01 06:37:38;;;;;;;14.03;12.63;;;20.80;99.90;;;;;;5072135;28;20454;-78
2022/08/01 06:40:06;;;;;;;15.40;11.60;;;20.90;99.90;;;;;;5063848;28;20518;-79
2022/08/01 06:42:35;;;;;;;12.77;11.13;;;20.90;99.90;;;;;;5069362;28;20541;-79
2022/08/01 06:45:05;;;;;;;17.10;12.40;;;20.90;99.90;;;;;;5064434;28;20502;-79
2022/08/01 06:47:33;;;;;;;13.43;11.47;;;21.00;99.90;;;;;;5075783;28;20531;-78
2022/08/01 06:50:00;;;;;;;15.20;12.70;;;20.80;99.90;;;;;;5070619;28;20558;-79
2022/08/01 06:52:27;;;;;;;19.03;13.37;;;20.80;99.90;;;;;;5075558;28;20534;-82
2022/08/01 06:54:54;;;;;;;15.77;13.60;;;20.90;99.90;;;;;;5076150;28;20482;-82
2022/08/01 06:57:21;;;;;;;17.43;14.70;;;20.80;99.90;;;;;;5074842;28;20502;-81
2022/08/01 06:59:53;;;;;;;15.80;13.90;;;20.90;99.90;;;;;;5072940;28;20529;-79
2022/08/01 07:02:20;;;;;;;16.40;13.67;;;21.00;99.90;;;;;;5075561;28;20538;-78
2022/08/01 07:04:48;;;;;;;15.27;13.00;;;21.00;99.90;;;;;;5076295;28;20471;-80
2022/08/01 07:07:16;;;;;;;14.63;12.20;;;21.10;99.90;;;;;;5076939;28;21288;-80
2022/08/01 07:09:43;;;;;;;16.63;12.83;;;21.10;99.90;;;;;;5073320;28;20490;-80
2022/08/01 07:12:10;;;;;;;15.10;12.53;;;21.20;99.90;;;;;;5078684;28;20455;-81
2022/08/01 07:14:37;;;;;;;12.13;10.60;;;21.10;99.90;;;;;;5076690;28;20458;-79
2022/08/01 07:17:04;;;;;;;16.00;12.10;;;21.10;99.90;;;;;;5073424;28;20501;-82
2022/08/01 07:19:34;;;;;;;15.47;13.67;;;21.40;99.90;;;;;;5073924;28;20497;-81
2022/08/01 07:22:03;;;;;;;16.03;13.80;;;21.20;99.90;;;;;;5073447;28;20455;-81
2022/08/01 07:24:30;;;;;;;13.90;11.90;;;21.10;99.90;;;;;;5075263;28;20490;-83
2022/08/01 07:26:57;;;;;;;13.30;11.70;;;21.30;99.90;;;;;;5069803;28;20452;-81
2022/08/01 07:29:25;;;;;;;12.00;10.30;;;21.30;99.90;;;;;;5089718;28;20534;-83
2022/08/01 07:31:56;;;;;;;10.30;9.30;;;21.30;99.90;;;;;;5094316;28;20455;-81
2022/08/01 07:34:23;;;;;;;9.70;8.80;;;21.30;99.90;;;;;;5096554;28;20462;-82
2022/08/01 07:36:51;;;;;;;10.00;8.90;;;21.40;99.90;;;;;;5073799;28;20457;-78
2022/08/01 07:39:19;;;;;;;9.43;7.93;;;21.50;99.90;;;;;;5076122;28;20850;-79
2022/08/01 07:41:46;;;;;;;12.00;10.40;;;21.60;99.90;;;;;;5065643;28;20442;-80
2022/08/01 07:44:13;;;;;;;8.70;6.53;;;21.50;99.90;;;;;;5076271;28;20969;-79
2022/08/01 07:46:40;;;;;;;9.93;6.63;;;21.50;99.90;;;;;;5075589;28;20551;-81
2022/08/01 07:49:08;;;;;;;7.20;6.40;;;21.70;99.90;;;;;;5075400;28;20517;-79
2022/08/01 07:51:35;;;;;;;7.50;6.03;;;21.90;99.90;;;;;;5072745;28;20455;-77
2022/08/01 07:54:01;;;;;;;5.47;4.73;;;22.00;99.90;;;;;;5069995;28;20546;-79
2022/08/01 07:56:32;;;;;;;6.70;4.80;;;21.90;99.90;;;;;;5073455;28;20451;-78
2022/08/01 07:59:02;;;;;;;4.60;4.10;;;22.00;99.90;;;;;;5072236;28;20516;-79
2022/08/01 08:01:32;;;;;;;4.87;4.37;;;22.00;99.90;;;;;;5066963;28;20559;-78
2022/08/01 08:03:59;;;;;;;7.40;4.93;;;22.10;99.90;;;;;;5066887;28;20455;-79
2022/08/01 08:06:25;;;;;;;5.53;4.80;;;22.00;99.90;;;;;;5065933;28;20575;-81
2022/08/01 08:08:54;;;;;;;7.27;5.90;;;21.80;99.90;;;;;;5067613;28;20914;-78
2022/08/01 08:11:24;;;;;;;6.83;6.13;;;21.90;99.90;;;;;;5066096;28;20459;-81
2022/08/01 08:13:55;;;;;;;8.47;4.90;;;22.00;99.90;;;;;;5069027;28;20454;-78
2022/08/01 08:16:22;;;;;;;6.60;4.53;;;21.90;99.90;;;;;;5072467;28;20530;-77
2022/08/01 08:18:49;;;;;;;5.13;4.43;;;22.00;99.90;;;;;;5068245;28;20468;-79
2022/08/01 08:21:16;;;;;;;5.83;4.60;;;22.00;99.90;;;;;;5072656;28;20538;-80
2022/08/01 08:26:27;;;;;;;4.10;3.03;;;22.20;99.90;;;;;;5072833;28;20438;-81
2022/08/01 08:28:56;;;;;;;7.70;2.67;;;22.50;99.90;;;;;;5065248;28;20475;-81
2022/08/01 08:31:22;;;;;;;3.10;2.20;;;22.60;99.90;;;;;;5068871;28;20461;-80
2022/08/01 08:33:49;;;;;;;5.27;2.73;;;22.60;99.90;;;;;;5067958;28;21046;-82
2022/08/01 08:36:16;;;;;;;3.40;3.00;;;22.70;99.90;;;;;;5073348;28;20514;-80
2022/08/01 08:38:43;;;;;;;4.00;2.23;;;22.90;99.90;;;;;;5074051;28;20534;-82
2022/08/01 08:41:11;;;;;;;3.00;2.70;;;23.00;99.90;;;;;;5071533;28;20475;-80
2022/08/01 08:43:42;;;;;;;4.00;2.37;;;23.00;99.90;;;;;;5071732;28;20502;-82
2022/08/01 08:46:14;;;;;;;5.07;2.77;;;22.80;99.90;;;;;;5070927;28;20905;-80
2022/08/01 08:48:42;;;;;;;4.20;2.40;;;22.80;99.90;;;;;;5071095;28;20542;-80
2022/08/01 08:51:11;;;;;;;6.53;2.20;;;22.90;99.90;;;;;;5082060;28;20461;-80
2022/08/01 08:53:43;;;;;;;3.00;1.93;;;23.10;99.90;;;;;;5071840;28;20469;-82
2022/08/01 08:56:12;;;;;;;4.27;2.30;;;23.50;99.90;;;;;;5072153;28;20454;-81
2022/08/01 08:58:39;;;;;;;2.50;1.57;;;23.70;99.90;;;;;;5074345;28;20538;-79
2022/08/01 09:01:07;;;;;;;2.60;1.80;;;23.90;99.90;;;;;;5074661;28;20578;-83
2022/08/01 09:03:35;;;;;;;2.33;1.63;;;23.90;99.90;;;;;;5070232;28;20494;-80
2022/08/01 09:06:02;;;;;;;2.80;2.17;;;23.90;99.90;;;;;;5073029;28;20470;-82
2022/08/01 09:08:29;;;;;;;3.30;2.50;;;23.90;99.90;;;;;;5074560;28;20542;-83
2022/08/01 09:10:56;;;;;;;2.80;1.73;;;23.60;99.90;;;;;;5072670;28;20479;-77
2022/08/01 09:13:23;;;;;;;2.97;2.20;;;23.70;99.90;;;;;;5073199;28;20459;-79
2022/08/01 09:15:53;;;;;;;4.40;2.30;;;23.90;99.90;;;;;;5075810;28;21123;-80
2022/08/01 09:18:33;;;;;;;2.70;2.20;;;24.10;99.90;;;;;;5074912;28;20462;-81
2022/08/01 09:21:14;;;;;;;2.77;2.30;;;24.30;99.90;;;;;;5072847;28;20483;-78
2022/08/01 09:23:44;;;;;;;3.40;2.30;;;24.40;99.90;;;;;;5066908;28;20455;-82
2022/08/01 09:26:12;;;;;;;4.17;2.47;;;24.00;99.90;;;;;;5065157;28;20484;-80
2022/08/01 09:28:40;;;;;;;2.10;1.87;;;23.80;99.90;;;;;;5070708;28;20832;-82
2022/08/01 09:31:08;;;;;;;6.53;2.20;;;23.70;99.90;;;;;;5070860;28;21026;-81
2022/08/01 09:33:52;;;;;;;2.50;1.90;;;23.50;99.90;;;;;;5072491;28;20455;-78
2022/08/01 09:36:21;;;;;;;2.40;1.50;;;23.50;99.90;;;;;;5073571;28;20454;-80
2022/08/01 09:38:49;;;;;;;2.10;1.40;;;23.40;99.90;;;;;;5070040;28;20570;-81
2022/08/01 09:41:15;;;;;;;2.20;1.70;;;23.80;99.90;;;;;;5071731;28;20489;-82
2022/08/01 09:43:49;;;;;;;1.90;1.30;;;24.00;99.90;;;;;;5069071;28;20530;-80
2022/08/01 09:46:16;;;;;;;1.83;1.50;;;24.40;99.90;;;;;;5049840;28;20506;-82
2022/08/01 09:48:56;;;;;;;4.03;1.77;;;24.80;99.90;;;;;;5067830;28;20462;-80
2022/08/01 09:51:34;;;;;;;3.27;1.50;;;24.90;99.90;;;;;;5072103;28;20439;-80
2022/08/01 09:54:01;;;;;;;3.37;1.70;;;25.00;99.90;;;;;;5071662;28;20458;-79
2022/08/01 09:56:37;;;;;;;2.80;1.47;;;24.60;99.90;;;;;;5068477;28;20453;-79
2022/08/01 09:59:05;;;;;;;4.30;1.77;;;24.50;99.90;;;;;;5076057;28;20481;-80
2022/08/01 10:01:44;;;;;;;3.43;1.50;;;24.10;99.90;;;;;;5076820;28;20518;-82
2022/08/01 10:04:12;;;;;;;2.73;1.33;;;24.60;99.90;;;;;;5075695;28;20522;-80
2022/08/01 10:06:43;;;;;;;2.60;1.40;;;24.90;99.90;;;;;;5073096;28;20931;-81
2022/08/01 10:09:11;;;;;;;2.60;1.33;;;24.90;99.90;;;;;;5073467;28;20482;-82
2022/08/01 10:11:39;;;;;;;2.03;1.20;;;25.30;99.90;;;;;;5076194;28;20533;-81
2022/08/01 10:14:07;;;;;;;4.33;1.27;;;25.40;99.90;;;;;;5076232;28;20458;-82
2022/08/01 10:16:36;;;;;;;2.00;1.30;;;25.70;99.90;;;;;;5078257;28;20545;-83
2022/08/01 10:19:03;;;;;;;3.40;1.30;;;25.90;99.90;;;;;;5076413;28;20486;-81
2022/08/01 10:21:33;;;;;;;2.97;1.40;;;25.90;99.90;;;;;;5074340;28;20496;-82
2022/08/01 10:24:04;;;;;;;1.93;1.40;;;25.90;99.90;;;;;;5072959;28;20490;-79
2022/08/01 10:26:35;;;;;;;2.30;1.60;;;25.80;99.90;;;;;;5070788;28;20447;-79
2022/08/01 10:29:03;;;;;;;2.67;1.50;;;25.50;99.90;;;;;;5067938;28;20562;-80
2022/08/01 10:31:32;;;;;;;4.80;1.33;;;25.50;99.90;;;;;;5073869;28;20491;-79
2022/08/01 10:34:01;;;;;;;4.70;1.63;;;25.30;99.90;;;;;;5076286;28;20473;-80
2022/08/01 10:36:28;;;;;;;2.37;1.40;;;25.10;99.90;;;;;;5074415;28;20583;-83
2022/08/01 10:38:56;;;;;;;2.70;1.63;;;24.90;99.90;;;;;;5069990;28;20496;-82
2022/08/01 10:41:25;;;;;;;2.57;1.50;;;24.60;99.90;;;;;;5079846;28;20507;-79
2022/08/01 10:43:53;;;;;;;4.43;1.13;;;24.70;99.90;;;;;;5076874;28;20965;-81
2022/08/01 10:46:20;;;;;;;2.20;1.50;;;24.70;99.90;;;;;;5074118;28;20530;-80
2022/08/01 10:48:55;;;;;;;2.03;1.10;;;24.60;99.90;;;;;;5075079;28;20470;-79
2022/08/01 10:51:23;;;;;;;1.60;0.93;;;24.50;99.90;;;;;;5078660;28;20569;-82
2022/08/01 10:53:52;;;;;;;2.47;1.10;;;24.00;99.90;;;;;;5079949;28;20459;-81
2022/08/01 10:56:20;;;;;;;2.00;0.90;;;23.90;99.90;;;;;;5093431;28;20471;-80
2022/08/01 10:58:49;;;;;;;1.70;1.00;;;23.80;99.90;;;;;;5086994;28;20482;-83
2022/08/01 11:01:23;;;;;;;1.70;1.03;;;23.80;99.90;;;;;;5079199;28;20525;-76
2022/08/01 11:04:04;;;;;;;3.33;1.23;;;23.70;99.90;;;;;;5060328;28;20842;-77
2022/08/01 11:06:49;;;;;;;2.40;1.20;;;23.70;99.90;;;;;;5071018;28;20459;-79
2022/08/01 11:09:28;;;;;;;2.50;1.30;;;23.70;99.90;;;;;;5074161;28;20477;-79
2022/08/01 11:12:01;;;;;;;3.40;1.40;;;23.80;99.90;;;;;;5074974;28;20447;-82
2022/08/01 11:14:30;;;;;;;1.83;0.90;;;24.00;99.90;;;;;;5071729;28;20466;-80
2022/08/01 11:16:57;;;;;;;2.10;1.00;;;24.30;99.90;;;;;;5074279;28;20451;-77
2022/08/01 11:19:24;;;;;;;2.00;1.00;;;24.60;99.90;;;;;;5071954;28;20479;-78
2022/08/01 11:22:02;;;;;;;2.83;0.80;;;24.70;99.90;;;;;;5074505;28;20481;-78
2022/08/01 11:25:01;;;;;;;2.37;0.90;;;24.70;99.90;;;;;;5072710;28;20823;-77
2022/08/01 11:27:29;;;;;;;3.00;0.70;;;24.00;99.90;;;;;;5069979;28;20497;-80
2022/08/01 11:30:29;;;;;;;1.60;0.70;;;24.00;99.90;;;;;;5072396;28;20510;-81
2022/08/01 11:32:57;;;;;;;2.73;1.00;;;24.00;99.90;;;;;;5064957;28;20485;-79
2022/08/01 11:35:26;;;;;;;2.40;0.97;;;23.70;99.90;;;;;;5073508;28;20954;-80
2022/08/01 11:37:55;;;;;;;1.90;0.97;;;23.50;99.90;;;;;;5072779;28;20454;-79
2022/08/01 11:40:23;;;;;;;1.60;0.77;;;23.60;99.90;;;;;;5073012;28;20498;-78
2022/08/01 11:43:11;;;;;;;1.70;1.00;;;23.50;99.90;;;;;;5071901;28;20610;-80
2022/08/01 11:45:49;;;;;;;1.80;0.90;;;23.60;99.90;;;;;;5054247;28;20524;-80
2022/08/01 11:48:27;;;;;;;1.80;0.90;;;23.80;99.90;;;;;;5069373;28;21023;-81
2022/08/01 11:50:55;;;;;;;1.60;0.80;;;24.10;99.90;;;;;;5067422;28;20475;-79
2022/08/01 11:53:22;;;;;;;1.80;0.90;;;24.40;99.90;;;;;;5073024;28;20443;-80
2022/08/01 11:55:51;;;;;;;1.60;0.80;;;24.50;99.90;;;;;;5073915;28;20961;-79
2022/08/01 11:58:22;;;;;;;1.73;0.80;;;24.50;99.90;;;;;;5072727;28;20535;-78
2022/08/01 12:00:55;;;;;;;1.60;1.00;;;24.60;99.90;;;;;;5073139;28;21009;-80
2022/08/01 12:03:27;;;;;;;1.70;1.00;;;24.70;99.90;;;;;;5060414;28;20451;-80
2022/08/01 12:05:54;;;;;;;2.10;1.10;;;25.10;99.90;;;;;;5070379;28;20878;-78
2022/08/01 12:08:26;;;;;;;1.80;0.90;;;25.20;99.90;;;;;;5071228;28;21006;-79
2022/08/01 12:10:53;;;;;;;1.50;0.70;;;25.20;99.90;;;;;;5070809;28;20529;-82
2022/08/01 12:13:21;;;;;;;2.53;0.80;;;25.30;99.90;;;;;;5069373;28;20534;-79
2022/08/01 12:15:49;;;;;;;1.60;0.93;;;25.20;99.90;;;;;;5060407;28;20974;-78
2022/08/01 12:18:18;;;;;;;2.90;1.00;;;25.00;99.90;;;;;;5073069;28;20481;-78
2022/08/01 12:20:46;;;;;;;1.80;1.00;;;24.60;99.90;;;;;;5058359;28;20593;-78
2022/08/01 12:23:15;;;;;;;2.10;0.87;;;24.90;99.90;;;;;;5071367;28;20477;-78
2022/08/01 12:25:44;;;;;;;2.47;1.00;;;25.60;99.90;;;;;;5067308;28;20479;-79
2022/08/01 12:28:13;;;;;;;2.10;1.10;;;26.20;99.90;;;;;;5065277;28;20547;-78
2022/08/01 12:30:41;;;;;;;1.80;1.10;;;26.10;99.90;;;;;;5073151;28;20503;-81
2022/08/01 12:33:10;;;;;;;1.80;1.00;;;26.40;99.90;;;;;;5069373;28;20542;-81
2022/08/01 12:35:41;;;;;;;2.07;1.00;;;26.70;99.90;;;;;;5073353;28;20516;-78
2022/08/01 12:38:15;;;;;;;1.60;0.70;;;26.40;99.90;;;;;;5075727;28;20451;-77
2022/08/01 12:40:43;;;;;;;2.03;0.90;;;26.40;99.90;;;;;;5073043;28;20581;-77
2022/08/01 12:43:10;;;;;;;1.80;0.87;;;26.30;99.90;;;;;;5073574;28;20540;-78
2022/08/01 12:45:39;;;;;;;2.00;0.90;;;25.70;99.90;;;;;;5072790;28;20534;-78
2022/08/01 12:48:11;;;;;;;1.80;0.77;;;25.50;99.90;;;;;;5076743;28;20455;-78
2022/08/01 12:50:41;;;;;;;1.80;0.90;;;25.20;99.90;;;;;;5070673;28;22274;-82
2022/08/01 12:53:09;;;;;;;2.00;0.80;;;25.10;99.90;;;;;;5066396;28;20498;-79